Yutan, Nebraska
Current Conditions -  °F | °C
As of 8:55 AM on Monday 24 Nov 2014 (Local Time) from KAHQ Reporting Station
Overcast Overcast  
Wind Chill: 17°   Ceiling: 2600
Heat Index: 30°   Visibility: 10mi
Dew Point: 19°   Wind: 22mph
Humidity: 64%   Direction: 320°NW
Pressure: 29.69"   Gusts: 28mph
Location:  41.24°N, 96.4°W
Report Text: KAHQ 241455Z AUTO 32019G24KT 10SM OVC026 M01/M07 A2969 RMK AO2 T10101071
Loading
Personal Weather Stations






























Interactive Weather Map New forecast layout! Learn more

10-Day Weather Forecast

Advertisements
Track Severe Weather on mobile